createdAt,value
2017-11-10T00:00:03.211Z,1012.51
2017-11-10T00:00:43.787Z,1012.48
2017-11-10T00:01:24.370Z,1012.48
2017-11-10T00:02:04.936Z,1012.51
2017-11-10T00:02:45.515Z,1012.52
2017-11-10T00:03:26.089Z,1012.51
2017-11-10T00:04:06.666Z,1012.51
2017-11-10T00:04:47.259Z,1012.49
2017-11-10T00:05:27.827Z,1012.47
2017-11-10T00:06:08.404Z,1012.49
2017-11-10T00:06:49.000Z,1012.5
2017-11-10T00:07:29.569Z,1012.5
2017-11-10T00:08:10.155Z,1012.47
2017-11-10T00:08:50.735Z,1012.46
2017-11-10T00:09:31.296Z,1012.49
2017-11-10T00:10:11.937Z,1012.42
2017-11-10T00:10:52.506Z,1012.44
2017-11-10T00:11:33.111Z,1012.46
2017-11-10T00:12:13.704Z,1012.44
2017-11-10T00:12:54.271Z,1012.46
2017-11-10T00:13:34.868Z,1012.39
2017-11-10T00:14:15.487Z,1012.46
2017-11-10T00:14:56.069Z,1012.44
2017-11-10T00:15:36.665Z,1012.43
2017-11-10T00:16:17.230Z,1012.44
2017-11-10T00:16:57.833Z,1012.43
2017-11-10T00:17:38.448Z,1012.44
2017-11-10T00:18:19.033Z,1012.43
2017-11-10T00:18:59.617Z,1012.43
2017-11-10T00:19:40.222Z,1012.44
2017-11-10T00:20:20.835Z,1012.44
2017-11-10T00:21:01.429Z,1012.39
2017-11-10T00:21:42.005Z,1012.38
2017-11-10T00:22:22.611Z,1012.38
2017-11-10T00:23:03.188Z,1012.38
2017-11-10T00:23:43.807Z,1012.38
2017-11-10T00:24:24.394Z,1012.38
2017-11-10T00:25:04.966Z,1012.36
2017-11-10T00:25:45.528Z,1012.39
2017-11-10T00:26:26.141Z,1012.36
2017-11-10T00:27:06.793Z,1012.35
2017-11-10T00:27:47.352Z,1012.37
2017-11-10T00:28:28.520Z,1012.36
2017-11-10T00:29:09.115Z,1012.41
2017-11-10T00:29:49.685Z,1012.38
2017-11-10T00:30:30.258Z,1012.39
2017-11-10T00:31:10.869Z,1012.39
2017-11-10T00:31:51.431Z,1012.41
2017-11-10T00:32:32.008Z,1012.41
2017-11-10T00:33:12.597Z,1012.4
2017-11-10T00:33:53.180Z,1012.4
2017-11-10T00:34:33.771Z,1012.43
2017-11-10T00:35:14.345Z,1012.46
2017-11-10T00:35:54.924Z,1012.41
2017-11-10T00:36:35.520Z,1012.44
2017-11-10T00:37:16.146Z,1012.46
2017-11-10T00:37:56.704Z,1012.4
2017-11-10T00:38:37.309Z,1012.41
2017-11-10T00:39:17.885Z,1012.39
2017-11-10T00:39:58.436Z,1012.43
2017-11-10T00:40:39.022Z,1012.39
2017-11-10T00:41:19.604Z,1012.44
2017-11-10T00:42:00.179Z,1012.42
2017-11-10T00:42:40.822Z,1012.4
2017-11-10T00:43:21.397Z,1012.41
2017-11-10T00:44:01.989Z,1012.42
2017-11-10T00:44:42.564Z,1012.42
2017-11-10T00:45:23.135Z,1012.42
2017-11-10T00:46:03.701Z,1012.45
2017-11-10T00:46:44.263Z,1012.44
2017-11-10T00:47:24.840Z,1012.46
2017-11-10T00:48:05.408Z,1012.47
2017-11-10T00:48:46.000Z,1012.48
2017-11-10T00:49:26.611Z,1012.48
2017-11-10T00:50:07.211Z,1012.43
2017-11-10T00:50:47.794Z,1012.46
2017-11-10T00:51:28.408Z,1012.43
2017-11-10T00:52:08.966Z,1012.48
2017-11-10T00:52:49.553Z,1012.43
2017-11-10T00:53:30.143Z,1012.45
2017-11-10T00:54:10.713Z,1012.42
2017-11-10T00:54:51.305Z,1012.41
2017-11-10T00:55:31.902Z,1012.44
2017-11-10T00:56:12.462Z,1012.42
2017-11-10T00:56:53.034Z,1012.4
2017-11-10T00:57:33.630Z,1012.38
2017-11-10T00:58:14.191Z,1012.4
2017-11-10T00:58:54.758Z,1012.37
2017-11-10T00:59:35.323Z,1012.37
2017-11-10T01:00:15.909Z,1012.34
2017-11-10T01:00:56.491Z,1012.31
2017-11-10T01:01:37.081Z,1012.27
2017-11-10T01:02:17.626Z,1012.29
2017-11-10T01:02:58.194Z,1012.26
2017-11-10T01:03:38.793Z,1012.19
2017-11-10T01:04:19.352Z,1012.22
2017-11-10T01:04:59.915Z,1012.22
2017-11-10T01:05:40.475Z,1012.21
2017-11-10T01:06:21.056Z,1012.24
2017-11-10T01:07:01.618Z,1012.23
2017-11-10T01:07:42.190Z,1012.2
2017-11-10T01:08:22.763Z,1012.2
2017-11-10T01:09:03.334Z,1012.21
2017-11-10T01:09:43.893Z,1012.21
2017-11-10T01:10:24.472Z,1012.24
2017-11-10T01:11:05.046Z,1012.2
2017-11-10T01:11:45.619Z,1012.2
2017-11-10T01:12:26.174Z,1012.17
2017-11-10T01:13:06.741Z,1012.19
2017-11-10T01:13:47.295Z,1012.19
2017-11-10T01:14:27.872Z,1012.24
2017-11-10T01:15:08.447Z,1012.14
2017-11-10T01:15:49.032Z,1012.15
2017-11-10T01:16:29.587Z,1012.14
2017-11-10T01:17:10.176Z,1012.12
2017-11-10T01:17:50.741Z,1012.15
2017-11-10T01:18:31.313Z,1012.09
2017-11-10T01:19:11.880Z,1012.18
2017-11-10T01:19:52.458Z,1012.12
2017-11-10T01:20:33.045Z,1012.1
2017-11-10T01:21:13.607Z,1012.14
2017-11-10T01:21:54.195Z,1012.14
2017-11-10T01:22:34.766Z,1012.09
2017-11-10T01:23:15.328Z,1012.1
2017-11-10T01:23:55.907Z,1012.09
2017-11-10T01:24:36.464Z,1012.07
2017-11-10T01:25:17.134Z,1012.04
2017-11-10T01:25:57.697Z,1012.1
2017-11-10T01:26:38.270Z,1012.07
2017-11-10T01:27:19.033Z,1012.06
2017-11-10T01:27:59.604Z,1012.07
2017-11-10T01:28:40.180Z,1012.07
2017-11-10T01:29:20.742Z,1012.02
2017-11-10T01:30:01.306Z,1012.06
2017-11-10T01:30:41.875Z,1012.06
2017-11-10T01:31:22.455Z,1012.03
2017-11-10T01:32:03.046Z,1012.01
2017-11-10T01:32:43.626Z,1012.01
2017-11-10T01:33:24.182Z,1012
2017-11-10T01:34:04.769Z,1012
2017-11-10T01:34:45.348Z,1012.01
2017-11-10T01:35:25.919Z,1012.01
2017-11-10T01:36:06.485Z,1011.95
2017-11-10T01:36:47.052Z,1011.99
2017-11-10T01:37:27.631Z,1011.97
2017-11-10T01:38:08.195Z,1012
2017-11-10T01:38:48.770Z,1012.01
2017-11-10T01:39:29.343Z,1011.95
2017-11-10T01:40:09.921Z,1012
2017-11-10T01:40:50.478Z,1011.93
2017-11-10T01:41:31.075Z,1011.9
2017-11-10T01:42:11.640Z,1011.97
2017-11-10T01:42:52.229Z,1011.91
2017-11-10T01:43:32.838Z,1011.95
2017-11-10T01:44:13.428Z,1011.92
2017-11-10T01:44:53.988Z,1011.93
2017-11-10T01:45:34.562Z,1011.87
2017-11-10T01:46:15.122Z,1011.88
2017-11-10T01:46:55.707Z,1011.9
2017-11-10T01:47:36.256Z,1011.89
2017-11-10T01:48:16.845Z,1011.84
2017-11-10T01:48:57.456Z,1011.8
2017-11-10T01:49:38.058Z,1011.82
2017-11-10T01:50:18.674Z,1011.81
2017-11-10T01:50:59.258Z,1011.8
2017-11-10T01:51:39.883Z,1011.79
2017-11-10T01:52:20.475Z,1011.78
2017-11-10T01:53:01.059Z,1011.72
2017-11-10T01:53:41.651Z,1011.77
2017-11-10T01:54:22.262Z,1011.75
2017-11-10T01:55:02.855Z,1011.76
2017-11-10T01:55:43.470Z,1011.76
2017-11-10T01:56:24.060Z,1011.72
2017-11-10T01:57:04.663Z,1011.75
2017-11-10T01:57:45.225Z,1011.67
2017-11-10T01:58:25.851Z,1011.67
2017-11-10T01:59:06.415Z,1011.67
2017-11-10T01:59:46.977Z,1011.61
2017-11-10T02:00:27.566Z,1011.62
2017-11-10T02:01:08.132Z,1011.57
2017-11-10T02:01:48.736Z,1011.51
2017-11-10T02:02:29.299Z,1011.51
2017-11-10T02:03:09.884Z,1011.52
2017-11-10T02:03:50.449Z,1011.5
2017-11-10T02:04:31.033Z,1011.46
2017-11-10T02:05:11.619Z,1011.4
2017-11-10T02:05:52.195Z,1011.43
2017-11-10T02:06:32.783Z,1011.36
2017-11-10T02:07:13.375Z,1011.4
2017-11-10T02:07:53.960Z,1011.43
2017-11-10T02:08:34.512Z,1011.38
2017-11-10T02:09:15.094Z,1011.41
2017-11-10T02:09:55.658Z,1011.41
2017-11-10T02:10:36.235Z,1011.37
2017-11-10T02:11:16.807Z,1011.36
2017-11-10T02:11:57.381Z,1011.37
2017-11-10T02:12:37.953Z,1011.39
2017-11-10T02:13:18.556Z,1011.36
2017-11-10T02:13:59.139Z,1011.33
2017-11-10T02:14:39.701Z,1011.32
2017-11-10T02:15:20.277Z,1011.32
2017-11-10T02:16:00.859Z,1011.29
2017-11-10T02:16:41.438Z,1011.32
2017-11-10T02:17:22.003Z,1011.32
2017-11-10T02:18:02.579Z,1011.33
2017-11-10T02:18:43.160Z,1011.3
2017-11-10T02:19:23.741Z,1011.29
2017-11-10T02:20:04.347Z,1011.28
2017-11-10T02:20:44.939Z,1011.27
2017-11-10T02:21:25.521Z,1011.32
2017-11-10T02:22:06.094Z,1011.28
2017-11-10T02:22:46.664Z,1011.27
2017-11-10T02:23:27.232Z,1011.27
2017-11-10T02:24:07.829Z,1011.25
2017-11-10T02:24:48.397Z,1011.23
2017-11-10T02:25:28.955Z,1011.2
2017-11-10T02:26:09.538Z,1011.18
2017-11-10T02:26:50.105Z,1011.2
2017-11-10T02:27:30.661Z,1011.17
2017-11-10T02:28:11.258Z,1011.13
2017-11-10T02:28:51.813Z,1011.09
2017-11-10T02:29:32.408Z,1011.11
2017-11-10T02:30:13.018Z,1011.04
2017-11-10T02:30:53.591Z,1011.05
2017-11-10T02:31:34.150Z,1011.06
2017-11-10T02:32:14.726Z,1011.03
2017-11-10T02:32:55.315Z,1011.06
2017-11-10T02:33:35.883Z,1011.02
2017-11-10T02:34:16.463Z,1010.99
2017-11-10T02:34:57.028Z,1011.02
2017-11-10T02:35:37.631Z,1011.07
2017-11-10T02:36:18.212Z,1011.02
2017-11-10T02:36:58.828Z,1011.02
2017-11-10T02:37:39.416Z,1011.03
2017-11-10T02:38:19.985Z,1011.05
2017-11-10T02:39:00.552Z,1011.06
2017-11-10T02:39:41.125Z,1011.06
2017-11-10T02:40:21.693Z,1011.06
2017-11-10T02:41:02.258Z,1011.01
2017-11-10T02:41:42.842Z,1011.06
2017-11-10T02:42:23.396Z,1011.07
2017-11-10T02:43:03.958Z,1011.02
2017-11-10T02:43:44.515Z,1011.03
2017-11-10T02:44:25.081Z,1011.04
2017-11-10T02:45:05.635Z,1011.03
2017-11-10T02:45:46.243Z,1010.99
2017-11-10T02:46:26.826Z,1011.01
2017-11-10T02:47:07.392Z,1011
2017-11-10T02:47:47.972Z,1010.95
2017-11-10T02:48:28.556Z,1010.98
2017-11-10T02:49:09.120Z,1010.97
2017-11-10T02:49:49.696Z,1010.98
2017-11-10T02:50:30.257Z,1010.98
2017-11-10T02:51:10.810Z,1010.96
2017-11-10T02:51:51.365Z,1010.99
2017-11-10T02:52:31.927Z,1010.94
2017-11-10T02:53:12.519Z,1010.95
2017-11-10T02:53:53.119Z,1010.96
2017-11-10T02:54:33.713Z,1010.89
2017-11-10T02:55:14.313Z,1010.88
2017-11-10T02:55:54.860Z,1010.85
2017-11-10T02:56:35.421Z,1010.85
2017-11-10T02:57:16.018Z,1010.78
2017-11-10T02:57:56.577Z,1010.75
2017-11-10T02:58:37.144Z,1010.76
2017-11-10T02:59:17.710Z,1010.81
2017-11-10T02:59:58.291Z,1010.79
2017-11-10T03:00:38.853Z,1010.76
2017-11-10T03:01:19.414Z,1010.78
2017-11-10T03:02:00.002Z,1010.74
2017-11-10T03:02:40.562Z,1010.71
2017-11-10T03:03:21.140Z,1010.74
2017-11-10T03:04:01.719Z,1010.72
2017-11-10T03:04:42.340Z,1010.71
2017-11-10T03:05:22.914Z,1010.73
2017-11-10T03:06:03.480Z,1010.71
2017-11-10T03:06:44.054Z,1010.7
2017-11-10T03:07:24.620Z,1010.71
2017-11-10T03:08:05.194Z,1010.69
2017-11-10T03:08:45.764Z,1010.67
2017-11-10T03:09:26.327Z,1010.61
2017-11-10T03:10:06.901Z,1010.58
2017-11-10T03:10:47.482Z,1010.6
2017-11-10T03:11:28.058Z,1010.57
2017-11-10T03:12:08.621Z,1010.53
2017-11-10T03:12:49.177Z,1010.56
2017-11-10T03:13:29.742Z,1010.51
2017-11-10T03:14:10.301Z,1010.5
2017-11-10T03:14:50.894Z,1010.47
2017-11-10T03:15:31.556Z,1010.49
2017-11-10T03:16:12.135Z,1010.47
2017-11-10T03:16:52.693Z,1010.45
2017-11-10T03:17:33.242Z,1010.46
2017-11-10T03:18:13.834Z,1010.48
2017-11-10T03:18:54.423Z,1010.43
2017-11-10T03:19:35.062Z,1010.39
2017-11-10T03:20:15.615Z,1010.37
2017-11-10T03:20:56.190Z,1010.37
2017-11-10T03:21:36.756Z,1010.35
2017-11-10T03:22:17.337Z,1010.4
2017-11-10T03:22:57.940Z,1010.32
2017-11-10T03:23:38.510Z,1010.32
2017-11-10T03:24:19.093Z,1010.33
2017-11-10T03:24:59.702Z,1010.3
2017-11-10T03:25:40.263Z,1010.35
2017-11-10T03:26:20.830Z,1010.27
2017-11-10T03:27:01.396Z,1010.27
2017-11-10T03:27:41.967Z,1010.26
2017-11-10T03:28:22.538Z,1010.24
2017-11-10T03:29:03.113Z,1010.26
2017-11-10T03:29:43.694Z,1010.26
2017-11-10T03:30:24.318Z,1010.3
2017-11-10T03:31:04.880Z,1010.28
2017-11-10T03:31:45.456Z,1010.32
2017-11-10T03:32:26.048Z,1010.32
2017-11-10T03:33:06.631Z,1010.35
2017-11-10T03:33:47.204Z,1010.31
2017-11-10T03:34:27.788Z,1010.29
2017-11-10T03:35:08.391Z,1010.34
2017-11-10T03:35:48.957Z,1010.33
2017-11-10T03:36:29.526Z,1010.36
2017-11-10T03:37:10.153Z,1010.33
2017-11-10T03:37:50.752Z,1010.32
2017-11-10T03:38:31.335Z,1010.36
2017-11-10T03:39:11.923Z,1010.35
2017-11-10T03:39:52.474Z,1010.33
2017-11-10T03:40:33.071Z,1010.33
2017-11-10T03:41:13.645Z,1010.33
2017-11-10T03:41:54.216Z,1010.34
2017-11-10T03:42:34.778Z,1010.3
2017-11-10T03:43:15.358Z,1010.3
2017-11-10T03:43:56.015Z,1010.25
2017-11-10T03:44:36.583Z,1010.29
2017-11-10T03:45:17.141Z,1010.25
2017-11-10T03:45:57.737Z,1010.26
2017-11-10T03:46:38.314Z,1010.26
2017-11-10T03:47:18.896Z,1010.27
2017-11-10T03:47:59.464Z,1010.21
2017-11-10T03:48:40.029Z,1010.22
2017-11-10T03:49:20.609Z,1010.19
2017-11-10T03:50:01.200Z,1010.17
2017-11-10T03:50:41.774Z,1010.2
2017-11-10T03:51:22.336Z,1010.2
2017-11-10T03:52:02.915Z,1010.19
2017-11-10T03:52:43.479Z,1010.18
2017-11-10T03:53:24.062Z,1010.13
2017-11-10T03:54:04.633Z,1010.17
2017-11-10T03:54:45.188Z,1010.13
2017-11-10T03:55:25.751Z,1010.14
2017-11-10T03:56:06.327Z,1010.12
2017-11-10T03:56:46.908Z,1010.15
2017-11-10T03:57:27.489Z,1010.11
2017-11-10T03:58:08.049Z,1010.1
2017-11-10T03:58:48.647Z,1010.11
2017-11-10T03:59:29.242Z,1010.09
2017-11-10T04:00:09.822Z,1010.07
2017-11-10T04:00:50.391Z,1010.04
2017-11-10T04:01:30.969Z,1010.09
2017-11-10T04:02:11.554Z,1010.05
2017-11-10T04:02:52.116Z,1010.05
2017-11-10T04:03:32.671Z,1010.04
2017-11-10T04:04:13.238Z,1010.08
2017-11-10T04:04:53.801Z,1010.1
2017-11-10T04:05:34.369Z,1010.05
2017-11-10T04:06:14.935Z,1010.08
2017-11-10T04:06:55.510Z,1010.11
2017-11-10T04:07:36.099Z,1010.13
2017-11-10T04:08:16.673Z,1010.13
2017-11-10T04:08:57.239Z,1010.14
2017-11-10T04:09:37.789Z,1010.13
2017-11-10T04:10:18.384Z,1010.1
2017-11-10T04:10:58.953Z,1010.08
2017-11-10T04:11:39.519Z,1010.08
2017-11-10T04:12:20.079Z,1010.1
2017-11-10T04:13:00.654Z,1010.09
2017-11-10T04:13:41.236Z,1010.06
2017-11-10T04:14:21.936Z,1010.08
2017-11-10T04:15:02.521Z,1010.04
2017-11-10T04:15:43.097Z,1010.03
2017-11-10T04:16:23.681Z,1010.06
2017-11-10T04:17:04.253Z,1010
2017-11-10T04:17:44.823Z,1010.02
2017-11-10T04:18:25.444Z,1010.03
2017-11-10T04:19:06.041Z,1010.03
2017-11-10T04:19:46.605Z,1010.02
2017-11-10T04:20:27.204Z,1010.06
2017-11-10T04:21:07.797Z,1010.02
2017-11-10T04:21:48.382Z,1009.99
2017-11-10T04:22:28.989Z,1010.03
2017-11-10T04:23:09.557Z,1010.02
2017-11-10T04:23:50.109Z,1010.05
2017-11-10T04:24:30.667Z,1010.1
2017-11-10T04:25:11.269Z,1010.07
2017-11-10T04:25:51.850Z,1010.1
2017-11-10T04:26:32.458Z,1010.05
2017-11-10T04:27:13.012Z,1010.07
2017-11-10T04:27:53.600Z,1010.04
2017-11-10T04:28:34.164Z,1009.98
2017-11-10T04:29:14.765Z,1009.97
2017-11-10T04:29:55.317Z,1009.93
2017-11-10T04:30:35.913Z,1009.93
2017-11-10T04:31:16.473Z,1009.97
2017-11-10T04:31:57.097Z,1009.93
2017-11-10T04:32:37.670Z,1009.9
2017-11-10T04:33:18.236Z,1009.89
2017-11-10T04:33:58.815Z,1009.9
2017-11-10T04:34:39.379Z,1009.9
2017-11-10T04:35:20.050Z,1009.87
2017-11-10T04:36:00.720Z,1009.85
2017-11-10T04:36:41.298Z,1009.85
2017-11-10T04:37:21.963Z,1009.81
2017-11-10T04:38:02.435Z,1009.8
2017-11-10T04:38:43.044Z,1009.77
2017-11-10T04:39:23.603Z,1009.78
2017-11-10T04:40:04.201Z,1009.75
2017-11-10T04:40:44.770Z,1009.72
2017-11-10T04:41:25.328Z,1009.71
2017-11-10T04:42:05.903Z,1009.69
2017-11-10T04:42:46.486Z,1009.7
2017-11-10T04:43:27.057Z,1009.73
2017-11-10T04:44:07.626Z,1009.8
2017-11-10T04:44:48.186Z,1009.84
2017-11-10T04:45:28.757Z,1009.85
2017-11-10T04:46:09.311Z,1009.83
2017-11-10T04:46:49.889Z,1009.86
2017-11-10T04:47:30.476Z,1009.86
2017-11-10T04:48:11.035Z,1009.92
2017-11-10T04:48:51.615Z,1009.98
2017-11-10T04:49:32.200Z,1009.98
2017-11-10T04:50:12.753Z,1009.97
2017-11-10T04:50:53.331Z,1009.95
2017-11-10T04:51:33.930Z,1009.97
2017-11-10T04:52:14.503Z,1010
2017-11-10T04:52:55.171Z,1009.99
2017-11-10T04:53:35.747Z,1009.97
2017-11-10T04:54:16.298Z,1009.94
2017-11-10T04:54:56.876Z,1009.94
2017-11-10T04:55:37.453Z,1009.89
2017-11-10T04:56:18.011Z,1009.88
2017-11-10T04:56:58.589Z,1009.91
2017-11-10T04:57:39.177Z,1009.87
2017-11-10T04:58:19.768Z,1009.88
2017-11-10T04:59:00.358Z,1009.86
2017-11-10T04:59:40.938Z,1009.85
2017-11-10T05:00:21.523Z,1009.84
2017-11-10T05:01:02.148Z,1009.85
2017-11-10T05:01:42.717Z,1009.84
2017-11-10T05:02:23.288Z,1009.84
2017-11-10T05:03:03.875Z,1009.89
2017-11-10T05:03:44.454Z,1009.84
2017-11-10T05:04:25.021Z,1009.86
2017-11-10T05:05:05.572Z,1009.89
2017-11-10T05:05:46.137Z,1009.81
2017-11-10T05:06:26.747Z,1009.9
2017-11-10T05:07:07.326Z,1009.84
2017-11-10T05:07:47.923Z,1009.87
2017-11-10T05:08:28.527Z,1009.85
2017-11-10T05:09:09.228Z,1009.85
2017-11-10T05:09:49.911Z,1009.88
2017-11-10T05:10:30.487Z,1009.84
2017-11-10T05:11:11.051Z,1009.85
2017-11-10T05:11:51.906Z,1009.8
2017-11-10T05:12:32.449Z,1009.81
2017-11-10T05:13:13.272Z,1009.8
2017-11-10T05:13:53.891Z,1009.82
2017-11-10T05:14:34.503Z,1009.82
2017-11-10T05:15:15.076Z,1009.81
2017-11-10T05:15:55.936Z,1009.79
2017-11-10T05:16:37.112Z,1009.8
2017-11-10T05:17:17.702Z,1009.8
2017-11-10T05:17:59.869Z,1009.8
2017-11-10T05:18:40.431Z,1009.79
2017-11-10T05:19:21.002Z,1009.62
2017-11-10T05:20:01.591Z,1009.76
2017-11-10T05:20:42.144Z,1009.72
2017-11-10T05:21:22.727Z,1009.72
2017-11-10T05:22:03.559Z,1009.72
2017-11-10T05:22:44.591Z,1009.75
2017-11-10T05:23:25.179Z,1009.74
2017-11-10T05:24:06.349Z,1009.65
2017-11-10T05:24:47.533Z,1009.69
2017-11-10T05:25:28.129Z,1009.64
2017-11-10T05:26:08.729Z,1009.66
2017-11-10T05:26:49.319Z,1009.63
2017-11-10T05:27:29.940Z,1009.62
2017-11-10T05:28:10.524Z,1009.62
2017-11-10T05:28:51.105Z,1009.62
2017-11-10T05:29:31.653Z,1009.6
2017-11-10T05:30:12.236Z,1009.64
2017-11-10T05:30:52.817Z,1009.64
2017-11-10T05:31:33.380Z,1009.62
2017-11-10T05:32:13.940Z,1009.67
2017-11-10T05:32:54.532Z,1009.65
2017-11-10T05:33:35.089Z,1009.65
2017-11-10T05:34:15.657Z,1009.56
2017-11-10T05:34:56.255Z,1009.66
2017-11-10T05:35:36.838Z,1009.65
2017-11-10T05:36:17.411Z,1009.68
2017-11-10T05:36:58.011Z,1009.65
2017-11-10T05:37:38.592Z,1009.7
2017-11-10T05:38:19.153Z,1009.73
2017-11-10T05:38:59.716Z,1009.73
2017-11-10T05:39:41.073Z,1009.71
2017-11-10T05:40:21.639Z,1009.74
2017-11-10T05:41:02.213Z,1009.77
2017-11-10T05:41:42.971Z,1009.73
2017-11-10T05:42:24.118Z,1009.72
2017-11-10T05:43:04.763Z,1009.74
2017-11-10T05:43:45.336Z,1009.63
2017-11-10T05:44:25.905Z,1009.68
2017-11-10T05:45:06.486Z,1009.67
2017-11-10T05:45:47.050Z,1009.7
2017-11-10T05:46:27.654Z,1009.71
2017-11-10T05:47:08.249Z,1009.69
2017-11-10T05:47:48.824Z,1009.71
2017-11-10T05:48:29.407Z,1009.7
2017-11-10T05:49:09.996Z,1009.72
2017-11-10T05:49:50.554Z,1009.73
2017-11-10T05:50:31.128Z,1009.73
2017-11-10T05:51:11.716Z,1009.75
2017-11-10T05:51:52.295Z,1009.68
2017-11-10T05:52:32.855Z,1009.72
2017-11-10T05:53:13.445Z,1009.65
2017-11-10T05:53:54.000Z,1009.73
2017-11-10T05:54:34.565Z,1009.69
2017-11-10T05:55:15.156Z,1009.69
2017-11-10T05:55:55.762Z,1009.7
2017-11-10T05:56:36.360Z,1009.74
2017-11-10T05:57:16.948Z,1009.72
2017-11-10T05:57:57.508Z,1009.7
2017-11-10T05:58:38.081Z,1009.7
2017-11-10T05:59:18.658Z,1009.68
2017-11-10T05:59:59.258Z,1009.66
2017-11-10T06:00:39.807Z,1009.63
2017-11-10T06:01:20.373Z,1009.65
2017-11-10T06:02:00.933Z,1009.67
2017-11-10T06:02:41.501Z,1009.67
2017-11-10T06:03:22.067Z,1009.69
2017-11-10T06:04:02.647Z,1009.69
2017-11-10T06:04:43.199Z,1009.62
2017-11-10T06:05:23.780Z,1009.63
2017-11-10T06:06:04.524Z,1009.66
2017-11-10T06:06:45.163Z,1009.69
2017-11-10T06:07:25.723Z,1009.62
2017-11-10T06:08:06.294Z,1009.61
2017-11-10T06:08:46.893Z,1009.6
2017-11-10T06:09:27.461Z,1009.6
2017-11-10T06:10:08.014Z,1009.67
2017-11-10T06:10:48.605Z,1009.64
2017-11-10T06:11:29.187Z,1009.62
2017-11-10T06:12:10.276Z,1009.61
2017-11-10T06:12:50.896Z,1009.61
2017-11-10T06:13:31.409Z,1009.57
2017-11-10T06:14:13.035Z,1009.6
2017-11-10T06:14:53.613Z,1009.59
2017-11-10T06:15:35.102Z,1009.55
2017-11-10T06:16:15.694Z,1009.55
2017-11-10T06:16:56.306Z,1009.55
2017-11-10T06:17:36.868Z,1009.55
2017-11-10T06:18:17.444Z,1009.57
2017-11-10T06:18:58.021Z,1009.54
2017-11-10T06:19:38.675Z,1009.55
2017-11-10T06:20:19.246Z,1009.51
2017-11-10T06:20:59.806Z,1009.54
2017-11-10T06:21:40.386Z,1009.47
2017-11-10T06:22:20.968Z,1009.43
2017-11-10T06:23:01.522Z,1009.44
2017-11-10T06:23:42.088Z,1009.47
2017-11-10T06:24:22.664Z,1009.43
2017-11-10T06:25:03.246Z,1009.4
2017-11-10T06:25:43.814Z,1009.45
2017-11-10T06:26:24.425Z,1009.43
2017-11-10T06:27:04.993Z,1009.38
2017-11-10T06:27:45.568Z,1009.41
2017-11-10T06:28:26.188Z,1009.44
2017-11-10T06:29:06.787Z,1009.44
2017-11-10T06:29:47.358Z,1009.44
2017-11-10T06:30:27.921Z,1009.44
2017-11-10T06:31:08.528Z,1009.41
2017-11-10T06:31:49.123Z,1009.44
2017-11-10T06:32:29.695Z,1009.4
2017-11-10T06:33:10.287Z,1009.39
2017-11-10T06:33:50.853Z,1009.36
2017-11-10T06:34:31.446Z,1009.36
2017-11-10T06:35:12.015Z,1009.34
2017-11-10T06:35:52.590Z,1009.31
2017-11-10T06:36:33.198Z,1009.32
2017-11-10T06:37:13.788Z,1009.36
2017-11-10T06:37:54.391Z,1009.34
2017-11-10T06:38:34.978Z,1009.34
2017-11-10T06:39:15.570Z,1009.33
2017-11-10T06:39:56.578Z,1009.29
2017-11-10T06:40:37.216Z,1009.28
2017-11-10T06:41:17.774Z,1009.26
2017-11-10T06:41:58.346Z,1009.26
2017-11-10T06:42:38.924Z,1009.25
2017-11-10T06:43:19.622Z,1009.25
2017-11-10T06:44:00.183Z,1009.27
2017-11-10T06:44:40.779Z,1009.22
2017-11-10T06:45:21.377Z,1009.24
2017-11-10T06:46:01.951Z,1009.26
2017-11-10T06:46:42.513Z,1009.24
2017-11-10T06:47:23.123Z,1009.27
2017-11-10T06:48:03.685Z,1009.25
2017-11-10T06:48:44.262Z,1009.26
2017-11-10T06:49:24.845Z,1009.24
2017-11-10T06:50:05.417Z,1009.19
2017-11-10T06:50:45.995Z,1009.2
2017-11-10T06:51:26.613Z,1009.2
2017-11-10T06:52:07.203Z,1009.22
2017-11-10T06:52:47.785Z,1009.22
2017-11-10T06:53:28.367Z,1009.21
2017-11-10T06:54:08.943Z,1009.24
2017-11-10T06:54:49.543Z,1009.26
2017-11-10T06:55:30.142Z,1009.25
2017-11-10T06:56:10.761Z,1009.25
2017-11-10T06:56:51.366Z,1009.21
2017-11-10T06:57:31.939Z,1009.26
2017-11-10T06:58:12.535Z,1009.24
2017-11-10T06:58:53.124Z,1009.25
2017-11-10T06:59:33.704Z,1009.23
2017-11-10T07:00:14.304Z,1009.25
2017-11-10T07:00:54.861Z,1009.21
2017-11-10T07:01:35.466Z,1009.21
2017-11-10T07:02:16.069Z,1009.18
2017-11-10T07:02:56.652Z,1009.2
2017-11-10T07:03:37.240Z,1009.16
2017-11-10T07:04:17.810Z,1009.2
2017-11-10T07:04:58.397Z,1009.17
2017-11-10T07:05:39.030Z,1009.17
2017-11-10T07:06:19.577Z,1009.2
2017-11-10T07:07:00.154Z,1009.17
2017-11-10T07:07:40.720Z,1009.15
2017-11-10T07:08:21.285Z,1009.19
2017-11-10T07:09:01.839Z,1009.18
2017-11-10T07:09:42.398Z,1009.16
2017-11-10T07:10:22.980Z,1009.15
2017-11-10T07:11:03.581Z,1009.07
2017-11-10T07:11:44.178Z,1009.12
2017-11-10T07:12:24.753Z,1009.09
2017-11-10T07:13:05.321Z,1009.05
2017-11-10T07:13:45.913Z,1009.04
2017-11-10T07:14:26.490Z,1009.05
2017-11-10T07:15:07.059Z,1008.99
2017-11-10T07:15:48.398Z,1009.07
2017-11-10T07:16:28.984Z,1009.03
2017-11-10T07:17:09.558Z,1009.04
2017-11-10T07:17:50.164Z,1009.06
2017-11-10T07:18:30.732Z,1009
2017-11-10T07:19:11.318Z,1009.03
2017-11-10T07:19:51.908Z,1009.05
2017-11-10T07:20:32.560Z,1009.04
2017-11-10T07:21:13.151Z,1009.09
2017-11-10T07:21:53.734Z,1009.08
2017-11-10T07:22:34.313Z,1008.98
2017-11-10T07:23:14.885Z,1009.03
2017-11-10T07:23:55.449Z,1008.96
2017-11-10T07:24:36.071Z,1008.99
2017-11-10T07:25:16.666Z,1008.98
2017-11-10T07:25:57.232Z,1008.93
2017-11-10T07:26:37.831Z,1008.94
2017-11-10T07:27:18.455Z,1008.95
2017-11-10T07:27:59.021Z,1008.93
2017-11-10T07:28:39.599Z,1008.97
2017-11-10T07:29:20.198Z,1008.92
2017-11-10T07:30:00.785Z,1008.99
2017-11-10T07:30:41.389Z,1009
2017-11-10T07:31:21.980Z,1008.96
2017-11-10T07:32:02.578Z,1008.97
2017-11-10T07:32:43.151Z,1009
2017-11-10T07:33:23.735Z,1008.95
2017-11-10T07:34:04.325Z,1008.96
2017-11-10T07:34:44.913Z,1008.87
2017-11-10T07:35:25.468Z,1008.9
2017-11-10T07:36:06.059Z,1008.88
2017-11-10T07:36:46.677Z,1008.84
2017-11-10T07:37:27.252Z,1008.87
2017-11-10T07:38:07.832Z,1008.84
2017-11-10T07:38:48.418Z,1008.84
2017-11-10T07:39:29.026Z,1008.79
2017-11-10T07:40:09.618Z,1008.79
2017-11-10T07:40:50.211Z,1008.79
2017-11-10T07:41:30.810Z,1008.73
2017-11-10T07:42:11.409Z,1008.76
2017-11-10T07:42:51.964Z,1008.78
2017-11-10T07:43:32.584Z,1008.77
2017-11-10T07:44:13.234Z,1008.75
2017-11-10T07:44:53.809Z,1008.72
2017-11-10T07:45:34.359Z,1008.75
2017-11-10T07:46:14.954Z,1008.74
2017-11-10T07:46:55.520Z,1008.71
2017-11-10T07:47:36.134Z,1008.73
2017-11-10T07:48:16.727Z,1008.71
2017-11-10T07:48:57.317Z,1008.67
2017-11-10T07:49:37.867Z,1008.68
2017-11-10T07:50:18.457Z,1008.71
2017-11-10T07:50:59.022Z,1008.69
2017-11-10T07:51:39.583Z,1008.68
2017-11-10T07:52:20.178Z,1008.65
2017-11-10T07:53:00.727Z,1008.62
2017-11-10T07:53:41.292Z,1008.64
2017-11-10T07:54:21.861Z,1008.63
2017-11-10T07:55:02.429Z,1008.61
2017-11-10T07:55:42.991Z,1008.66
2017-11-10T07:56:23.574Z,1008.61
2017-11-10T07:57:04.167Z,1008.65
2017-11-10T07:57:44.745Z,1008.61
2017-11-10T07:58:25.345Z,1008.64
2017-11-10T07:59:05.980Z,1008.66
2017-11-10T07:59:46.611Z,1008.67
2017-11-10T08:00:27.184Z,1008.63
2017-11-10T08:01:07.980Z,1008.7
2017-11-10T08:01:48.560Z,1008.68
2017-11-10T08:02:29.121Z,1008.65
2017-11-10T08:03:09.716Z,1008.61
2017-11-10T08:03:50.335Z,1008.66
2017-11-10T08:04:30.903Z,1008.67
2017-11-10T08:05:11.503Z,1008.67
2017-11-10T08:05:52.079Z,1008.61
2017-11-10T08:06:32.637Z,1008.65
2017-11-10T08:07:13.204Z,1008.68
2017-11-10T08:07:53.787Z,1008.63
2017-11-10T08:08:34.353Z,1008.61
2017-11-10T08:09:14.952Z,1008.64
2017-11-10T08:09:55.516Z,1008.63
2017-11-10T08:10:36.072Z,1008.69
2017-11-10T08:11:16.669Z,1008.65
2017-11-10T08:11:57.247Z,1008.61
2017-11-10T08:12:37.817Z,1008.6